Time;durP1;ratioP1;P1;durP2;ratioP2;P2;SDS_P1;SDS_P2;PMS_P1;PMS_P2;Temp;Humidity;BMP_temperature;BMP_pressure;BME280_temperature;BME280_humidity;BME280_pressure;Samples;Min_cycle;Max_cycle;Signal;HPM_P1;HPM_P2
2020/12/16 00:01:54;;;;;;;54.70;31.23;;;;;;;;;;5036553;28;20210;-79
2020/12/16 00:04:22;;;;;;;55.47;32.90;;;;;;;;;;5036471;28;20182;-78
2020/12/16 00:06:48;;;;;;;50.07;28.60;;;;;;;;;;5036008;28;20243;-79
2020/12/16 00:09:13;;;;;;;54.63;30.87;;;;;;;;;;5036007;28;20231;-79
2020/12/16 00:11:38;;;;;;;49.97;28.43;;;;;;;;;;5036870;28;20173;-79
2020/12/16 00:14:07;;;;;;;66.67;34.47;;;;;;;;;;5035272;28;20623;-80
2020/12/16 00:16:33;;;;;;;51.93;29.00;;;;;;;;;;5034078;28;20177;-80
2020/12/16 00:18:58;;;;;;;47.83;28.33;;;;;;;;;;5033989;28;20260;-80
2020/12/16 00:21:24;;;;;;;49.27;28.47;;;;;;;;;;5034469;28;20282;-80
2020/12/16 00:23:49;;;;;;;48.50;27.63;;;;;;;;;;5034093;28;20504;-79
2020/12/16 00:26:14;;;;;;;49.37;28.70;;;;;;;;;;5034517;28;20169;-79
2020/12/16 00:28:40;;;;;;;47.23;27.93;;;;;;;;;;5034234;28;20179;-80
2020/12/16 00:31:06;;;;;;;49.27;27.33;;;;;;;;;;5035513;28;20262;-79
2020/12/16 00:33:32;;;;;;;49.37;28.33;;;;;;;;;;5035870;28;20201;-79
2020/12/16 00:35:57;;;;;;;47.07;26.83;;;;;;;;;;5035643;28;20633;-79
2020/12/16 00:38:22;;;;;;;54.47;30.57;;;;;;;;;;5035742;28;20168;-79
2020/12/16 00:40:48;;;;;;;69.87;38.33;;;;;;;;;;5036191;28;20172;-79
2020/12/16 00:43:13;;;;;;;58.53;32.63;;;;;;;;;;5035535;28;20168;-78
2020/12/16 00:45:38;;;;;;;54.13;31.23;;;;;;;;;;5036031;28;20255;-78
2020/12/16 00:48:04;;;;;;;47.97;27.80;;;;;;;;;;5035943;28;20512;-78
2020/12/16 00:50:29;;;;;;;48.13;29.17;;;;;;;;;;5035366;28;20196;-78
2020/12/16 00:52:54;;;;;;;57.20;32.17;;;;;;;;;;5035489;28;20649;-78
2020/12/16 00:55:20;;;;;;;53.13;28.80;;;;;;;;;;5035639;28;20175;-78
2020/12/16 00:57:45;;;;;;;49.30;28.20;;;;;;;;;;5034298;28;20570;-79
2020/12/16 01:00:11;;;;;;;56.60;30.53;;;;;;;;;;5034231;28;20250;-79
2020/12/16 01:02:43;;;;;;;48.07;28.23;;;;;;;;;;5035314;28;20195;-78
2020/12/16 01:05:09;;;;;;;55.77;31.73;;;;;;;;;;5035297;28;20260;-78
2020/12/16 01:07:34;;;;;;;61.40;35.83;;;;;;;;;;5034974;28;20248;-78
2020/12/16 01:09:59;;;;;;;58.70;33.53;;;;;;;;;;5034969;28;20204;-78
2020/12/16 01:12:25;;;;;;;55.07;32.23;;;;;;;;;;5034968;28;20192;-78
2020/12/16 01:14:50;;;;;;;49.43;29.13;;;;;;;;;;5035136;28;20180;-78
2020/12/16 01:17:15;;;;;;;49.57;28.37;;;;;;;;;;5035412;28;20168;-78
2020/12/16 01:19:41;;;;;;;50.50;28.27;;;;;;;;;;5035108;28;20184;-78
2020/12/16 01:22:06;;;;;;;83.43;44.80;;;;;;;;;;5034778;28;20173;-78
2020/12/16 01:24:31;;;;;;;72.97;41.77;;;;;;;;;;5034933;28;20173;-78
2020/12/16 01:26:57;;;;;;;59.93;34.67;;;;;;;;;;5034654;28;20165;-78
2020/12/16 01:29:22;;;;;;;55.37;30.87;;;;;;;;;;5035069;28;20676;-78
2020/12/16 01:31:49;;;;;;;51.00;29.43;;;;;;;;;;5034710;28;20176;-79
2020/12/16 01:34:19;;;;;;;58.27;31.27;;;;;;;;;;5034490;28;20183;-79
2020/12/16 01:36:44;;;;;;;49.20;27.43;;;;;;;;;;5034736;28;20254;-79
2020/12/16 01:39:10;;;;;;;49.73;27.17;;;;;;;;;;5034968;28;20216;-79
2020/12/16 01:41:46;;;;;;;47.47;27.63;;;;;;;;;;5034473;28;20168;-79
2020/12/16 01:44:14;;;;;;;49.13;27.23;;;;;;;;;;5035593;28;20176;-78
2020/12/16 01:46:47;;;;;;;52.53;28.37;;;;;;;;;;5035143;28;20183;-79
2020/12/16 01:49:12;;;;;;;50.47;29.33;;;;;;;;;;5034190;28;20174;-78
2020/12/16 01:51:38;;;;;;;47.40;26.97;;;;;;;;;;5034248;28;20172;-78
2020/12/16 01:54:05;;;;;;;44.97;26.33;;;;;;;;;;5034706;28;20172;-78
2020/12/16 01:56:31;;;;;;;55.17;29.03;;;;;;;;;;5034092;28;20168;-79
2020/12/16 01:58:57;;;;;;;51.43;27.47;;;;;;;;;;5034330;28;20274;-79
2020/12/16 02:01:23;;;;;;;60.20;30.40;;;;;;;;;;5034544;28;20252;-79
2020/12/16 02:03:51;;;;;;;55.93;30.23;;;;;;;;;;5034300;28;20179;-78
2020/12/16 02:06:17;;;;;;;54.30;28.93;;;;;;;;;;5034005;28;20175;-79
2020/12/16 02:08:43;;;;;;;53.67;28.70;;;;;;;;;;5033958;28;20175;-79
2020/12/16 02:11:08;;;;;;;82.77;42.30;;;;;;;;;;5034195;28;20193;-79
2020/12/16 02:13:33;;;;;;;67.73;35.77;;;;;;;;;;5034158;28;20266;-79
2020/12/16 02:15:59;;;;;;;58.40;31.43;;;;;;;;;;5033847;28;20177;-78
2020/12/16 02:18:24;;;;;;;71.27;38.10;;;;;;;;;;5034443;28;20226;-78
2020/12/16 02:20:49;;;;;;;61.90;33.00;;;;;;;;;;5034036;28;20619;-79
2020/12/16 02:23:19;;;;;;;55.23;30.33;;;;;;;;;;5033849;28;20275;-79
2020/12/16 02:25:45;;;;;;;55.17;29.37;;;;;;;;;;5033648;28;20535;-79
2020/12/16 02:28:10;;;;;;;50.23;28.00;;;;;;;;;;5033966;28;20679;-79
2020/12/16 02:30:36;;;;;;;58.60;30.43;;;;;;;;;;5033659;28;20252;-79
2020/12/16 02:33:01;;;;;;;60.50;31.60;;;;;;;;;;5033554;28;20192;-79
2020/12/16 02:35:26;;;;;;;55.00;29.43;;;;;;;;;;5033580;28;20183;-79
2020/12/16 02:37:52;;;;;;;50.20;27.43;;;;;;;;;;5034020;28;20169;-79
2020/12/16 02:40:17;;;;;;;65.43;34.23;;;;;;;;;;5033504;28;20179;-79
2020/12/16 02:42:42;;;;;;;58.87;32.23;;;;;;;;;;5033832;28;20171;-79
2020/12/16 02:45:08;;;;;;;52.50;29.07;;;;;;;;;;5034316;28;20223;-79
2020/12/16 02:47:33;;;;;;;54.33;29.20;;;;;;;;;;5033425;28;20225;-79
2020/12/16 02:49:59;;;;;;;54.37;29.77;;;;;;;;;;5033705;28;20191;-79
2020/12/16 02:52:24;;;;;;;63.43;32.43;;;;;;;;;;5033956;28;20255;-79
2020/12/16 02:54:49;;;;;;;59.53;32.93;;;;;;;;;;5033743;28;20265;-79
2020/12/16 02:57:15;;;;;;;64.63;34.00;;;;;;;;;;5033612;28;20211;-79
2020/12/16 02:59:49;;;;;;;57.13;33.07;;;;;;;;;;5033640;28;20235;-79
2020/12/16 03:02:14;;;;;;;55.80;29.93;;;;;;;;;;5033365;28;20165;-79
2020/12/16 03:04:39;;;;;;;55.40;31.93;;;;;;;;;;5033880;28;20177;-79
2020/12/16 03:07:05;;;;;;;59.87;32.50;;;;;;;;;;5033610;28;20175;-79
2020/12/16 03:09:30;;;;;;;60.97;32.90;;;;;;;;;;5033477;28;20222;-79
2020/12/16 03:11:56;;;;;;;58.53;31.73;;;;;;;;;;5033194;28;20173;-79
2020/12/16 03:14:21;;;;;;;59.93;32.33;;;;;;;;;;5033547;28;20621;-79
2020/12/16 03:16:47;;;;;;;55.73;31.47;;;;;;;;;;5033562;28;20267;-79
2020/12/16 03:19:12;;;;;;;55.90;30.27;;;;;;;;;;5034072;28;20599;-79
2020/12/16 03:21:38;;;;;;;53.07;28.93;;;;;;;;;;5033554;28;20177;-79
2020/12/16 03:24:03;;;;;;;55.37;30.33;;;;;;;;;;5035904;28;20307;-79
2020/12/16 03:26:28;;;;;;;54.90;27.63;;;;;;;;;;5037603;28;20192;-79
2020/12/16 03:28:54;;;;;;;49.43;27.10;;;;;;;;;;5037095;28;20172;-78
2020/12/16 03:31:19;;;;;;;49.57;26.43;;;;;;;;;;5037157;28;20303;-78
2020/12/16 03:33:45;;;;;;;49.00;26.70;;;;;;;;;;5036813;28;20650;-78
2020/12/16 03:36:15;;;;;;;47.30;26.83;;;;;;;;;;5037002;28;20195;-79
2020/12/16 03:38:41;;;;;;;52.47;29.23;;;;;;;;;;5036718;28;20504;-79
2020/12/16 03:41:07;;;;;;;54.80;30.47;;;;;;;;;;5036950;28;20179;-79
2020/12/16 03:43:32;;;;;;;55.80;30.17;;;;;;;;;;5036900;28;20204;-79
2020/12/16 03:45:58;;;;;;;58.67;32.03;;;;;;;;;;5035658;28;20176;-78
2020/12/16 03:48:23;;;;;;;61.93;34.03;;;;;;;;;;5036726;28;20204;-78
2020/12/16 03:50:48;;;;;;;57.77;33.10;;;;;;;;;;5037247;28;20654;-78
2020/12/16 03:53:14;;;;;;;69.37;40.50;;;;;;;;;;5036497;28;20591;-78
2020/12/16 03:55:39;;;;;;;67.03;38.43;;;;;;;;;;5037205;28;20180;-78
2020/12/16 03:58:04;;;;;;;67.40;37.53;;;;;;;;;;5036540;28;20187;-79
2020/12/16 04:00:30;;;;;;;77.07;44.20;;;;;;;;;;5055112;28;20275;-78
2020/12/16 04:02:55;;;;;;;65.43;39.33;;;;;;;;;;5057406;28;20196;-79
2020/12/16 04:05:20;;;;;;;60.33;35.17;;;;;;;;;;5049319;28;20180;-78
2020/12/16 04:07:46;;;;;;;52.90;30.77;;;;;;;;;;5036451;28;20168;-78
2020/12/16 04:10:11;;;;;;;57.20;32.87;;;;;;;;;;5036297;28;20204;-78
2020/12/16 04:12:36;;;;;;;58.00;33.40;;;;;;;;;;5036701;28;20176;-78
2020/12/16 04:15:02;;;;;;;59.27;34.83;;;;;;;;;;5036630;28;20223;-78
2020/12/16 04:17:27;;;;;;;64.20;36.40;;;;;;;;;;5036278;28;20173;-78
2020/12/16 04:19:52;;;;;;;66.40;37.67;;;;;;;;;;5035977;28;20176;-78
2020/12/16 04:22:18;;;;;;;64.90;36.60;;;;;;;;;;5036142;28;20164;-79
2020/12/16 04:24:43;;;;;;;60.07;35.63;;;;;;;;;;5035946;28;20173;-78
2020/12/16 04:27:08;;;;;;;55.07;31.47;;;;;;;;;;5035984;28;20192;-78
2020/12/16 04:29:34;;;;;;;51.53;29.83;;;;;;;;;;5036144;28;20196;-78
2020/12/16 04:31:59;;;;;;;52.33;32.63;;;;;;;;;;5036218;28;20196;-79
2020/12/16 04:34:25;;;;;;;56.23;30.07;;;;;;;;;;5035954;28;20172;-79
2020/12/16 04:36:51;;;;;;;44.90;26.80;;;;;;;;;;5035950;28;20172;-79
2020/12/16 04:39:16;;;;;;;44.43;27.33;;;;;;;;;;5035928;28;20260;-79
2020/12/16 04:41:42;;;;;;;51.63;29.17;;;;;;;;;;5035580;28;20200;-80
2020/12/16 04:44:09;;;;;;;72.73;36.53;;;;;;;;;;5035799;28;20259;-79
2020/12/16 04:46:37;;;;;;;71.67;36.97;;;;;;;;;;5035471;28;20222;-79
2020/12/16 04:49:03;;;;;;;72.17;37.07;;;;;;;;;;5035327;28;20169;-79
2020/12/16 04:51:32;;;;;;;63.00;35.53;;;;;;;;;;5035641;28;20176;-79
2020/12/16 04:53:57;;;;;;;63.73;34.93;;;;;;;;;;5035279;28;20226;-79
2020/12/16 04:56:23;;;;;;;63.20;33.70;;;;;;;;;;5035255;28;20202;-79
2020/12/16 04:58:48;;;;;;;71.53;36.90;;;;;;;;;;5035186;28;20252;-79
2020/12/16 05:01:13;;;;;;;66.83;35.83;;;;;;;;;;5035174;28;20180;-79
2020/12/16 05:03:42;;;;;;;64.90;34.70;;;;;;;;;;5035531;28;20172;-78
2020/12/16 05:06:07;;;;;;;58.27;32.87;;;;;;;;;;5035316;28;20523;-78
2020/12/16 05:08:32;;;;;;;59.60;32.93;;;;;;;;;;5035326;28;20168;-78
2020/12/16 05:10:58;;;;;;;73.27;38.87;;;;;;;;;;5035149;28;20346;-79
2020/12/16 05:13:25;;;;;;;74.50;39.77;;;;;;;;;;5035490;28;20172;-78
2020/12/16 05:15:50;;;;;;;58.77;35.13;;;;;;;;;;5035182;28;20168;-78
2020/12/16 05:18:16;;;;;;;57.13;32.20;;;;;;;;;;5035724;28;20579;-78
2020/12/16 05:20:43;;;;;;;53.27;29.97;;;;;;;;;;5035065;28;20182;-78
2020/12/16 05:23:09;;;;;;;49.70;29.40;;;;;;;;;;5034750;28;20629;-78
2020/12/16 05:25:35;;;;;;;50.13;29.57;;;;;;;;;;5034957;28;20176;-78
2020/12/16 05:28:00;;;;;;;51.13;29.77;;;;;;;;;;5034978;28;20172;-79
2020/12/16 05:30:26;;;;;;;51.63;29.77;;;;;;;;;;5034596;28;20204;-78
2020/12/16 05:32:51;;;;;;;64.97;36.13;;;;;;;;;;5035403;28;20499;-79
2020/12/16 05:35:27;;;;;;;61.13;36.43;;;;;;;;;;5034822;28;20531;-79
2020/12/16 05:38:00;;;;;;;64.60;36.90;;;;;;;;;;5035402;28;20207;-79
2020/12/16 05:40:26;;;;;;;64.67;37.47;;;;;;;;;;5035216;28;20219;-79
2020/12/16 05:42:51;;;;;;;71.47;40.20;;;;;;;;;;5033200;28;20538;-79
2020/12/16 05:45:21;;;;;;;79.47;45.90;;;;;;;;;;5034485;28;20191;-79
2020/12/16 05:47:56;;;;;;;85.90;44.60;;;;;;;;;;5033929;28;20177;-79
2020/12/16 05:50:22;;;;;;;80.83;45.53;;;;;;;;;;5034424;28;20330;-79
2020/12/16 05:52:47;;;;;;;90.47;47.60;;;;;;;;;;5034209;28;20625;-79
2020/12/16 05:55:28;;;;;;;90.00;45.80;;;;;;;;;;5034566;28;20165;-79
2020/12/16 05:58:08;;;;;;;96.33;47.80;;;;;;;;;;5034094;28;20255;-79
2020/12/16 06:00:41;;;;;;;70.77;39.27;;;;;;;;;;5034580;28;20737;-79
2020/12/16 06:03:07;;;;;;;64.03;36.93;;;;;;;;;;5034301;28;20173;-79
2020/12/16 06:05:32;;;;;;;71.33;37.50;;;;;;;;;;5034373;28;20176;-79
2020/12/16 06:07:58;;;;;;;70.97;37.77;;;;;;;;;;5034010;28;20164;-79
2020/12/16 06:10:26;;;;;;;64.07;35.60;;;;;;;;;;5033808;28;20192;-79
2020/12/16 06:12:51;;;;;;;65.30;35.47;;;;;;;;;;5034191;28;20177;-79
2020/12/16 06:15:17;;;;;;;62.37;34.30;;;;;;;;;;5033863;28;20173;-79
2020/12/16 06:17:46;;;;;;;72.43;38.07;;;;;;;;;;5034651;28;20168;-79
2020/12/16 06:20:16;;;;;;;67.07;37.43;;;;;;;;;;5033738;28;20177;-79
2020/12/16 06:22:42;;;;;;;75.17;39.70;;;;;;;;;;5034165;28;20169;-79
2020/12/16 06:25:09;;;;;;;67.50;36.80;;;;;;;;;;5034573;28;20173;-79
2020/12/16 06:27:52;;;;;;;62.37;34.83;;;;;;;;;;5034006;28;20187;-79
2020/12/16 06:30:28;;;;;;;64.83;36.47;;;;;;;;;;5034084;28;20684;-79
2020/12/16 06:33:06;;;;;;;72.70;39.73;;;;;;;;;;5034399;28;20780;-79
2020/12/16 06:35:32;;;;;;;77.63;43.27;;;;;;;;;;5033756;28;20171;-79
2020/12/16 06:38:23;;;;;;;82.20;46.03;;;;;;;;;;5033827;28;20164;-79
2020/12/16 06:40:53;;;;;;;82.37;47.97;;;;;;;;;;5034339;28;20242;-79
2020/12/16 06:43:30;;;;;;;80.37;45.50;;;;;;;;;;5034330;28;20172;-79
2020/12/16 06:45:55;;;;;;;86.17;49.17;;;;;;;;;;5033763;28;20161;-79
2020/12/16 06:48:36;;;;;;;107.07;56.87;;;;;;;;;;5034066;28;20215;-79
2020/12/16 06:51:21;;;;;;;115.90;58.07;;;;;;;;;;5033795;28;20196;-79
2020/12/16 06:53:47;;;;;;;110.40;56.47;;;;;;;;;;5033371;28;20527;-79
2020/12/16 06:56:17;;;;;;;123.50;57.27;;;;;;;;;;5034035;28;20239;-79
2020/12/16 06:58:42;;;;;;;122.97;57.63;;;;;;;;;;5035418;28;20617;-79
2020/12/16 07:01:11;;;;;;;124.23;55.47;;;;;;;;;;5037449;28;20168;-79
2020/12/16 07:03:37;;;;;;;131.40;59.13;;;;;;;;;;5038491;28;20515;-79
2020/12/16 07:06:02;;;;;;;142.60;61.33;;;;;;;;;;5037377;28;20172;-79
2020/12/16 07:08:30;;;;;;;120.60;55.37;;;;;;;;;;5037658;28;20178;-79
2020/12/16 07:10:56;;;;;;;105.47;53.40;;;;;;;;;;5037470;28;20199;-79
2020/12/16 07:13:24;;;;;;;92.43;46.83;;;;;;;;;;5037465;28;20172;-79
2020/12/16 07:16:00;;;;;;;81.70;46.30;;;;;;;;;;5037447;28;20168;-79
2020/12/16 07:18:27;;;;;;;89.10;47.53;;;;;;;;;;5037314;28;20659;-79
2020/12/16 07:20:59;;;;;;;78.20;45.30;;;;;;;;;;5037129;28;20623;-79
2020/12/16 07:23:37;;;;;;;81.70;45.30;;;;;;;;;;5037413;28;20176;-79
2020/12/16 07:26:02;;;;;;;87.47;48.53;;;;;;;;;;5037434;28;20160;-79
2020/12/16 07:28:31;;;;;;;87.47;48.87;;;;;;;;;;5037488;28;20251;-79
2020/12/16 07:30:56;;;;;;;94.70;51.27;;;;;;;;;;5036907;28;20201;-79
2020/12/16 07:33:22;;;;;;;97.67;51.70;;;;;;;;;;5036726;28;20189;-79
2020/12/16 07:35:47;;;;;;;119.57;61.47;;;;;;;;;;5037409;28;20245;-79
2020/12/16 07:38:13;;;;;;;114.93;58.37;;;;;;;;;;5036694;28;20168;-79
2020/12/16 07:40:39;;;;;;;96.47;52.83;;;;;;;;;;5037011;28;20184;-79
2020/12/16 07:43:07;;;;;;;100.87;52.53;;;;;;;;;;5036570;28;20573;-79
2020/12/16 07:45:32;;;;;;;87.57;45.47;;;;;;;;;;5036592;28;20222;-79
2020/12/16 07:47:58;;;;;;;76.90;43.33;;;;;;;;;;5036541;28;20173;-79
2020/12/16 07:50:23;;;;;;;81.23;44.07;;;;;;;;;;5036435;28;20200;-79
2020/12/16 07:52:52;;;;;;;82.80;44.53;;;;;;;;;;5037007;28;20165;-79
2020/12/16 07:55:24;;;;;;;75.87;40.93;;;;;;;;;;5036461;28;20177;-79
2020/12/16 07:57:49;;;;;;;72.07;41.23;;;;;;;;;;5036661;28;20183;-79
2020/12/16 08:00:20;;;;;;;75.13;41.43;;;;;;;;;;5036371;28;20236;-79
2020/12/16 08:02:49;;;;;;;67.27;38.47;;;;;;;;;;5036410;28;20240;-79
2020/12/16 08:05:15;;;;;;;59.30;37.67;;;;;;;;;;5036715;28;20207;-79
2020/12/16 08:07:40;;;;;;;59.87;35.20;;;;;;;;;;5035537;28;20216;-80
2020/12/16 08:10:07;;;;;;;56.47;34.50;;;;;;;;;;5035889;28;20200;-80
2020/12/16 08:12:33;;;;;;;59.40;33.90;;;;;;;;;;5036429;28;20177;-80
2020/12/16 08:15:07;;;;;;;54.70;31.77;;;;;;;;;;5034692;28;20574;-80
2020/12/16 08:17:36;;;;;;;58.50;34.13;;;;;;;;;;5017643;28;20264;-80
2020/12/16 08:20:07;;;;;;;62.77;37.90;;;;;;;;;;5016133;28;20204;-80
2020/12/16 08:22:33;;;;;;;66.33;37.37;;;;;;;;;;5016372;28;20169;-79
2020/12/16 08:25:08;;;;;;;68.37;38.73;;;;;;;;;;5016280;28;20173;-79
2020/12/16 08:27:33;;;;;;;67.10;38.10;;;;;;;;;;5016692;28;20165;-79
2020/12/16 08:29:59;;;;;;;64.67;36.27;;;;;;;;;;5016037;28;20606;-79
2020/12/16 08:32:26;;;;;;;68.47;38.27;;;;;;;;;;5015849;28;20189;-79
2020/12/16 08:34:52;;;;;;;62.27;36.17;;;;;;;;;;5017713;28;20205;-80
2020/12/16 08:37:20;;;;;;;67.57;36.67;;;;;;;;;;5016443;28;20588;-79
2020/12/16 08:39:47;;;;;;;60.87;36.07;;;;;;;;;;5015793;28;20252;-79
2020/12/16 08:42:21;;;;;;;57.63;34.07;;;;;;;;;;5016312;28;20219;-79
2020/12/16 08:44:46;;;;;;;56.10;33.20;;;;;;;;;;5016066;28;20165;-78
2020/12/16 08:47:22;;;;;;;58.90;32.27;;;;;;;;;;5016141;28;20257;-79
2020/12/16 08:49:50;;;;;;;53.73;32.37;;;;;;;;;;5015885;28;20189;-79
2020/12/16 08:52:16;;;;;;;53.53;30.13;;;;;;;;;;5015906;28;20531;-78
2020/12/16 08:54:42;;;;;;;52.57;30.17;;;;;;;;;;5015599;28;20172;-78
2020/12/16 08:57:07;;;;;;;51.60;29.37;;;;;;;;;;5015765;28;20624;-79
2020/12/16 08:59:33;;;;;;;51.40;30.87;;;;;;;;;;5022843;28;20642;-79
2020/12/16 09:02:01;;;;;;;44.13;28.23;;;;;;;;;;5034998;28;20234;-79
2020/12/16 09:04:29;;;;;;;41.77;27.40;;;;;;;;;;5035493;28;20608;-79
2020/12/16 09:07:09;;;;;;;47.37;29.80;;;;;;;;;;5034891;28;20587;-79
2020/12/16 09:09:36;;;;;;;45.90;29.10;;;;;;;;;;5035142;28;20261;-78
2020/12/16 09:12:02;;;;;;;45.10;27.90;;;;;;;;;;5034107;28;20187;-80
2020/12/16 09:14:28;;;;;;;43.50;28.37;;;;;;;;;;5029011;28;20251;-79
2020/12/16 09:16:54;;;;;;;46.87;29.43;;;;;;;;;;5030101;28;20177;-79
2020/12/16 09:19:20;;;;;;;41.90;27.13;;;;;;;;;;5035259;28;20180;-79
2020/12/16 09:21:46;;;;;;;43.23;26.37;;;;;;;;;;5032231;28;20168;-79
2020/12/16 09:24:11;;;;;;;47.17;26.57;;;;;;;;;;5033953;28;20621;-78
2020/12/16 09:26:38;;;;;;;43.73;25.53;;;;;;;;;;5033176;28;20179;-78
2020/12/16 09:29:13;;;;;;;41.63;26.43;;;;;;;;;;5034231;28;20189;-79
2020/12/16 09:31:38;;;;;;;43.43;26.47;;;;;;;;;;5034625;28;20247;-78
2020/12/16 09:34:04;;;;;;;36.67;23.37;;;;;;;;;;5034197;28;20212;-78
2020/12/16 09:36:30;;;;;;;35.87;23.90;;;;;;;;;;5033143;28;20181;-78
2020/12/16 09:38:59;;;;;;;51.23;29.97;;;;;;;;;;5034495;28;20176;-78
2020/12/16 09:41:25;;;;;;;45.57;28.30;;;;;;;;;;5034305;28;20173;-78
2020/12/16 09:43:50;;;;;;;39.53;25.40;;;;;;;;;;5034373;28;20184;-78
2020/12/16 09:46:21;;;;;;;47.83;29.77;;;;;;;;;;5034528;28;20169;-78
2020/12/16 09:48:46;;;;;;;53.47;32.07;;;;;;;;;;5034509;28;20168;-79
2020/12/16 09:51:16;;;;;;;57.87;33.70;;;;;;;;;;5034085;28;20740;-79
2020/12/16 09:53:41;;;;;;;48.97;29.33;;;;;;;;;;5034174;28;20687;-79
2020/12/16 09:56:07;;;;;;;50.77;29.37;;;;;;;;;;5033987;28;20256;-79
2020/12/16 09:58:37;;;;;;;41.77;26.43;;;;;;;;;;5034360;28;20230;-79
2020/12/16 10:01:02;;;;;;;35.33;23.93;;;;;;;;;;5034514;28;20199;-79
2020/12/16 10:03:27;;;;;;;38.97;23.37;;;;;;;;;;5033921;28;20619;-78
2020/12/16 10:05:53;;;;;;;37.53;22.90;;;;;;;;;;5034518;28;20176;-79
2020/12/16 10:08:19;;;;;;;37.73;23.50;;;;;;;;;;5034221;28;20169;-79
2020/12/16 10:10:44;;;;;;;34.30;23.17;;;;;;;;;;5034344;28;20227;-79
2020/12/16 10:13:10;;;;;;;36.67;24.37;;;;;;;;;;5034391;28;20626;-79
2020/12/16 10:15:35;;;;;;;37.63;24.03;;;;;;;;;;5034064;28;20226;-79
2020/12/16 10:18:01;;;;;;;36.00;22.83;;;;;;;;;;5034150;28;20230;-79
2020/12/16 10:20:26;;;;;;;37.60;24.23;;;;;;;;;;5033803;28;20222;-79
2020/12/16 10:22:52;;;;;;;39.47;24.63;;;;;;;;;;5033818;28;20172;-79
2020/12/16 10:25:17;;;;;;;32.33;21.60;;;;;;;;;;5033641;28;20275;-79
2020/12/16 10:27:42;;;;;;;37.57;22.10;;;;;;;;;;5033622;28;20183;-79
2020/12/16 10:30:08;;;;;;;42.10;23.43;;;;;;;;;;5033900;28;20204;-79
2020/12/16 10:32:38;;;;;;;38.67;22.80;;;;;;;;;;5033464;28;20230;-79
2020/12/16 10:35:03;;;;;;;38.23;24.10;;;;;;;;;;5034424;28;20204;-79
2020/12/16 10:37:28;;;;;;;40.13;25.50;;;;;;;;;;5033582;28;20531;-79
2020/12/16 10:39:54;;;;;;;39.77;25.93;;;;;;;;;;5033565;28;20198;-79
2020/12/16 10:42:22;;;;;;;44.40;26.33;;;;;;;;;;5031788;28;20193;-79
2020/12/16 10:44:48;;;;;;;45.63;25.80;;;;;;;;;;5033591;28;20180;-79
2020/12/16 10:47:13;;;;;;;35.67;22.53;;;;;;;;;;5033763;28;20165;-79
2020/12/16 10:49:39;;;;;;;35.83;23.20;;;;;;;;;;5033839;28;20562;-79
2020/12/16 10:52:06;;;;;;;36.60;22.23;;;;;;;;;;5033590;28;20262;-79
2020/12/16 10:54:32;;;;;;;40.27;21.93;;;;;;;;;;5033398;28;20173;-79
2020/12/16 10:56:58;;;;;;;31.23;21.60;;;;;;;;;;5033570;28;20218;-79
2020/12/16 10:59:25;;;;;;;38.33;23.07;;;;;;;;;;5033625;28;20289;-79
2020/12/16 11:01:51;;;;;;;31.37;20.90;;;;;;;;;;5033374;28;20173;-79
2020/12/16 11:04:16;;;;;;;29.57;20.77;;;;;;;;;;5033682;28;20317;-79
2020/12/16 11:06:46;;;;;;;28.00;20.73;;;;;;;;;;5033028;28;20637;-79
2020/12/16 11:09:12;;;;;;;33.63;21.67;;;;;;;;;;5033809;28;20630;-79
2020/12/16 11:11:40;;;;;;;33.57;21.67;;;;;;;;;;5033917;28;20295;-79
2020/12/16 11:14:06;;;;;;;33.87;22.13;;;;;;;;;;5034003;28;20165;-79
2020/12/16 11:16:31;;;;;;;46.63;32.80;;;;;;;;;;5033418;28;20226;-79
2020/12/16 11:18:57;;;;;;;32.23;22.70;;;;;;;;;;5033403;28;20180;-79
2020/12/16 11:21:22;;;;;;;34.87;25.17;;;;;;;;;;5033209;28;20172;-79
2020/12/16 11:23:48;;;;;;;50.00;34.40;;;;;;;;;;5033154;28;20180;-79
2020/12/16 11:26:13;;;;;;;292.93;146.13;;;;;;;;;;5033284;28;20264;-79
2020/12/16 11:28:39;;;;;;;29.87;19.67;;;;;;;;;;5033033;28;20347;-79
2020/12/16 11:31:04;;;;;;;26.43;17.50;;;;;;;;;;5033784;28;20212;-79
2020/12/16 11:33:29;;;;;;;25.23;17.07;;;;;;;;;;5033263;28;20196;-79
2020/12/16 11:35:55;;;;;;;27.87;18.97;;;;;;;;;;5032755;28;20205;-79
2020/12/16 11:38:20;;;;;;;28.23;18.90;;;;;;;;;;5033069;28;20180;-79
2020/12/16 11:40:46;;;;;;;26.83;18.40;;;;;;;;;;5033542;28;20259;-78
2020/12/16 11:43:11;;;;;;;28.23;19.13;;;;;;;;;;5032912;28;20171;-78
2020/12/16 11:45:36;;;;;;;27.90;19.60;;;;;;;;;;5030972;28;20639;-79
2020/12/16 11:48:02;;;;;;;28.27;19.90;;;;;;;;;;5017358;28;20604;-79
2020/12/16 11:50:27;;;;;;;29.83;20.60;;;;;;;;;;5016908;28;20228;-79
2020/12/16 11:52:52;;;;;;;30.07;20.13;;;;;;;;;;5016648;28;20204;-79
2020/12/16 11:55:18;;;;;;;24.63;18.40;;;;;;;;;;5016671;28;20173;-79
2020/12/16 11:57:43;;;;;;;23.00;17.20;;;;;;;;;;5016608;28;20172;-79
2020/12/16 12:00:09;;;;;;;25.80;17.80;;;;;;;;;;5016774;28;20233;-79
2020/12/16 12:02:34;;;;;;;27.50;18.83;;;;;;;;;;5016852;28;20188;-79
2020/12/16 12:05:01;;;;;;;26.03;18.90;;;;;;;;;;5017062;28;20180;-79
2020/12/16 12:07:26;;;;;;;25.40;18.97;;;;;;;;;;5024662;28;20185;-79
2020/12/16 12:09:51;;;;;;;28.13;18.57;;;;;;;;;;5036511;28;20204;-79
2020/12/16 12:12:17;;;;;;;29.17;20.20;;;;;;;;;;5036066;28;20276;-80
2020/12/16 12:14:42;;;;;;;25.70;19.20;;;;;;;;;;5036169;28;20184;-80
2020/12/16 12:17:07;;;;;;;32.80;21.40;;;;;;;;;;5036480;28;20173;-79
2020/12/16 12:19:34;;;;;;;36.80;25.03;;;;;;;;;;5036407;28;20705;-79
2020/12/16 12:21:59;;;;;;;32.67;22.17;;;;;;;;;;5036262;28;20173;-79
2020/12/16 12:24:25;;;;;;;27.80;20.73;;;;;;;;;;5036036;28;20528;-80
2020/12/16 12:26:51;;;;;;;31.53;21.03;;;;;;;;;;5035851;28;20176;-81
2020/12/16 12:29:16;;;;;;;26.67;19.47;;;;;;;;;;5036074;28;20529;-80
2020/12/16 12:31:42;;;;;;;30.70;20.97;;;;;;;;;;5035643;28;20215;-79
2020/12/16 12:34:08;;;;;;;31.53;21.70;;;;;;;;;;5035583;28;20267;-79
2020/12/16 12:36:33;;;;;;;28.50;20.60;;;;;;;;;;5036235;28;20541;-79
2020/12/16 12:38:58;;;;;;;33.50;21.80;;;;;;;;;;5035960;28;20168;-79
2020/12/16 12:41:24;;;;;;;29.37;19.50;;;;;;;;;;5035001;28;20255;-79
2020/12/16 12:43:49;;;;;;;29.67;20.83;;;;;;;;;;5026100;28;20276;-79
2020/12/16 12:46:14;;;;;;;26.27;18.67;;;;;;;;;;5025496;28;20192;-79
2020/12/16 12:48:40;;;;;;;28.00;20.10;;;;;;;;;;5023078;28;20222;-80
2020/12/16 12:51:05;;;;;;;26.27;17.67;;;;;;;;;;5019527;28;20200;-81
2020/12/16 12:53:31;;;;;;;23.80;17.60;;;;;;;;;;5025857;28;20180;-80
2020/12/16 12:55:56;;;;;;;22.80;16.93;;;;;;;;;;5033162;28;20187;-79
2020/12/16 12:58:47;;;;;;;28.87;19.33;;;;;;;;;;5391568;23;20291;-82
2020/12/16 13:01:13;;;;;;;24.50;17.97;;;;;;;;;;4997773;28;20316;-78
2020/12/16 13:03:38;;;;;;;25.00;18.37;;;;;;;;;;4995648;28;20280;-79
2020/12/16 13:06:06;;;;;;;26.63;18.83;;;;;;;;;;4996438;28;20177;-79
2020/12/16 13:08:33;;;;;;;25.67;18.20;;;;;;;;;;4996158;28;20624;-78
2020/12/16 13:10:58;;;;;;;23.57;17.47;;;;;;;;;;4995797;28;20289;-79
2020/12/16 13:13:24;;;;;;;26.93;18.63;;;;;;;;;;4995776;28;20273;-79
2020/12/16 13:15:50;;;;;;;29.60;20.37;;;;;;;;;;4994977;28;20182;-79
2020/12/16 13:18:15;;;;;;;28.63;19.80;;;;;;;;;;5003071;28;20172;-78
2020/12/16 13:20:40;;;;;;;28.00;19.33;;;;;;;;;;5015429;28;20200;-78
2020/12/16 13:23:06;;;;;;;31.13;19.63;;;;;;;;;;5000263;28;20176;-78
2020/12/16 13:25:31;;;;;;;30.13;19.20;;;;;;;;;;5003430;28;20169;-79
2020/12/16 13:27:56;;;;;;;27.73;19.00;;;;;;;;;;5000859;28;20201;-78
2020/12/16 13:30:22;;;;;;;28.57;19.53;;;;;;;;;;4995498;28;20714;-79
2020/12/16 13:32:47;;;;;;;29.80;20.00;;;;;;;;;;4995624;28;20585;-80
2020/12/16 13:35:12;;;;;;;26.50;18.23;;;;;;;;;;4995414;28;20240;-78
2020/12/16 13:37:38;;;;;;;26.87;18.90;;;;;;;;;;4995147;28;20170;-79
2020/12/16 13:40:04;;;;;;;33.73;22.83;;;;;;;;;;4995444;28;20184;-79
2020/12/16 13:42:30;;;;;;;36.77;22.47;;;;;;;;;;4994724;28;20178;-79
2020/12/16 13:44:55;;;;;;;36.00;22.27;;;;;;;;;;4995161;28;20166;-79
2020/12/16 13:47:20;;;;;;;37.57;24.07;;;;;;;;;;4978901;28;20180;-78
2020/12/16 13:49:46;;;;;;;36.93;24.00;;;;;;;;;;4975690;28;20541;-79
2020/12/16 13:52:14;;;;;;;40.10;25.60;;;;;;;;;;4975381;28;20206;-78
2020/12/16 13:54:41;;;;;;;42.83;27.13;;;;;;;;;;4983015;28;20260;-79
2020/12/16 13:57:06;;;;;;;43.47;28.77;;;;;;;;;;4994760;28;20207;-79
2020/12/16 13:59:32;;;;;;;44.43;29.90;;;;;;;;;;5001384;28;20253;-79
2020/12/16 14:01:57;;;;;;;41.63;28.60;;;;;;;;;;5014272;28;20203;-79
2020/12/16 14:04:22;;;;;;;41.33;27.83;;;;;;;;;;5014857;28;20662;-79
2020/12/16 14:06:48;;;;;;;44.57;28.43;;;;;;;;;;5013829;28;20196;-79
2020/12/16 14:09:13;;;;;;;46.30;29.53;;;;;;;;;;5014127;28;20175;-78
2020/12/16 14:11:38;;;;;;;44.90;29.40;;;;;;;;;;4998175;28;20209;-79
2020/12/16 14:14:04;;;;;;;44.87;28.60;;;;;;;;;;4994561;28;20631;-79